Richwood, Louisiana
Current Conditions -  °F | °C
As of 3:12 AM on Saturday 25 Oct 2014 (Local Time) from KMLU Reporting Station
Haze Haze  
Wind Chill: 51°   Ceiling: Unl
Heat Index: 51°   Visibility: 3mi
Dew Point: 49°   Wind: 0mph
Humidity: 92%   Direction: NA
Pressure: 30.13"   Gusts: NA
Location:  32.3976°N, 92.0551°W
Report Text: KMLU 250812Z AUTO 00000KT 3SM BR CLR 11/09 A3013 RMK AO2 T01060094
Loading
Personal Weather Stations






























Interactive Weather Map
Tropical Storm Tracking
New forecast layout! Learn more

10-Day Weather Forecast

Advertisements
Track Severe Weather on mobile